sensor_id;sensor_type;location;lat;lon;timestamp;pressure;altitude;pressure_sealevel;temperature;humidity
75460;BME280;64039;53.060;9.342;2023-06-26T00:01:29;101000.19;;;19.45;100.00
75460;BME280;64039;53.060;9.342;2023-06-26T00:04:00;100995.78;;;19.47;100.00
75460;BME280;64039;53.060;9.342;2023-06-26T00:06:25;100989.69;;;19.40;100.00
75460;BME280;64039;53.060;9.342;2023-06-26T00:08:52;100998.44;;;19.44;100.00
75460;BME280;64039;53.060;9.342;2023-06-26T00:11:19;100996.72;;;19.41;100.00
75460;BME280;64039;53.060;9.342;2023-06-26T00:13:44;100993.19;;;19.41;100.00
75460;BME280;64039;53.060;9.342;2023-06-26T00:16:09;100986.09;;;19.46;100.00
75460;BME280;64039;53.060;9.342;2023-06-26T00:18:35;100985.38;;;19.31;100.00
75460;BME280;64039;53.060;9.342;2023-06-26T00:21:00;100989.81;;;19.28;100.00
75460;BME280;64039;53.060;9.342;2023-06-26T00:23:26;100977.56;;;19.25;100.00
75460;BME280;64039;53.060;9.342;2023-06-26T00:25:53;100982.00;;;19.22;100.00
75460;BME280;64039;53.060;9.342;2023-06-26T00:28:18;100975.84;;;19.21;100.00
75460;BME280;64039;53.060;9.342;2023-06-26T00:30:44;100976.78;;;19.17;100.00
75460;BME280;64039;53.060;9.342;2023-06-26T00:33:09;100975.03;;;19.16;100.00
75460;BME280;64039;53.060;9.342;2023-06-26T00:35:35;100978.56;;;19.16;100.00
75460;BME280;64039;53.060;9.342;2023-06-26T00:38:01;100976.78;;;19.17;100.00
75460;BME280;64039;53.060;9.342;2023-06-26T00:40:26;100975.97;;;19.12;100.00
75460;BME280;64039;53.060;9.342;2023-06-26T00:42:53;100973.28;;;19.13;100.00
75460;BME280;64039;53.060;9.342;2023-06-26T00:45:18;100975.06;;;19.13;100.00
75460;BME280;64039;53.060;9.342;2023-06-26T00:47:44;100972.47;;;19.10;100.00
75460;BME280;64039;53.060;9.342;2023-06-26T00:50:10;100965.50;;;19.03;100.00
75460;BME280;64039;53.060;9.342;2023-06-26T00:52:36;100962.00;;;19.04;100.00
75460;BME280;64039;53.060;9.342;2023-06-26T00:55:02;100960.31;;;18.95;100.00
75460;BME280;64039;53.060;9.342;2023-06-26T00:57:30;100968.25;;;18.90;100.00
75460;BME280;64039;53.060;9.342;2023-06-26T00:59:56;100956.84;;;18.88;100.00
75460;BME280;64039;53.060;9.342;2023-06-26T01:02:21;100956.00;;;18.86;100.00
75460;BME280;64039;53.060;9.342;2023-06-26T01:04:48;100959.56;;;18.80;100.00
75460;BME280;64039;53.060;9.342;2023-06-26T01:07:15;100941.09;;;18.83;100.00
75460;BME280;64039;53.060;9.342;2023-06-26T01:09:41;100949.94;;;18.75;100.00
75460;BME280;64039;53.060;9.342;2023-06-26T01:12:07;100948.19;;;18.77;100.00
75460;BME280;64039;53.060;9.342;2023-06-26T01:14:36;100951.75;;;18.71;100.00
75460;BME280;64039;53.060;9.342;2023-06-26T01:17:02;100944.72;;;18.73;100.00
75460;BME280;64039;53.060;9.342;2023-06-26T01:19:30;100938.59;;;18.68;100.00
75460;BME280;64039;53.060;9.342;2023-06-26T01:24:53;100934.28;;;18.61;100.00
75460;BME280;64039;53.060;9.342;2023-06-26T01:27:21;100934.31;;;18.59;100.00
75460;BME280;64039;53.060;9.342;2023-06-26T01:29:51;100929.97;;;18.55;100.00
75460;BME280;64039;53.060;9.342;2023-06-26T01:32:17;100930.00;;;18.50;100.00
75460;BME280;64039;53.060;9.342;2023-06-26T01:34:44;100920.31;;;18.54;100.00
75460;BME280;64039;53.060;9.342;2023-06-26T01:37:10;100921.13;;;18.56;100.00
75460;BME280;64039;53.060;9.342;2023-06-26T01:39:36;100915.06;;;18.48;100.00
75460;BME280;64039;53.060;9.342;2023-06-26T01:42:01;100908.06;;;18.47;100.00
75460;BME280;64039;53.060;9.342;2023-06-26T01:44:29;100905.44;;;18.45;100.00
75460;BME280;64039;53.060;9.342;2023-06-26T01:47:05;100896.72;;;18.40;100.00
75460;BME280;64039;53.060;9.342;2023-06-26T01:49:46;100903.75;;;18.41;100.00
75460;BME280;64039;53.060;9.342;2023-06-26T01:55:12;100893.28;;;18.32;100.00
75460;BME280;64039;53.060;9.342;2023-06-26T01:57:41;100895.91;;;18.30;100.00
75460;BME280;64039;53.060;9.342;2023-06-26T02:00:08;100901.16;;;18.33;100.00
75460;BME280;64039;53.060;9.342;2023-06-26T02:02:36;100896.84;;;18.29;100.00
75460;BME280;64039;53.060;9.342;2023-06-26T02:05:02;100895.91;;;18.30;100.00
75460;BME280;64039;53.060;9.342;2023-06-26T02:07:27;100897.72;;;18.28;100.00
75460;BME280;64039;53.060;9.342;2023-06-26T02:09:53;100888.94;;;18.29;100.00
75460;BME280;64039;53.060;9.342;2023-06-26T02:12:18;100881.94;;;18.25;100.00
75460;BME280;64039;53.060;9.342;2023-06-26T02:14:44;100882.75;;;18.32;100.00
75460;BME280;64039;53.060;9.342;2023-06-26T02:17:10;100882.81;;;18.24;100.00
75460;BME280;64039;53.060;9.342;2023-06-26T02:19:35;100881.13;;;18.17;100.00
75460;BME280;64039;53.060;9.342;2023-06-26T02:22:01;100883.69;;;18.25;100.00
75460;BME280;64039;53.060;9.342;2023-06-26T02:24:26;100883.69;;;18.23;100.00
75460;BME280;64039;53.060;9.342;2023-06-26T02:26:56;100877.59;;;18.21;100.00
75460;BME280;64039;53.060;9.342;2023-06-26T02:29:22;100872.31;;;18.19;100.00
75460;BME280;64039;53.060;9.342;2023-06-26T02:31:47;100873.19;;;18.18;100.00
75460;BME280;64039;53.060;9.342;2023-06-26T02:34:14;100867.06;;;18.18;100.00
75460;BME280;64039;53.060;9.342;2023-06-26T02:36:39;100867.97;;;18.14;100.00
75460;BME280;64039;53.060;9.342;2023-06-26T02:39:05;100863.63;;;18.13;100.00
75460;BME280;64039;53.060;9.342;2023-06-26T02:41:31;100865.38;;;18.11;100.00
75460;BME280;64039;53.060;9.342;2023-06-26T02:43:56;100861.84;;;18.13;100.00
75460;BME280;64039;53.060;9.342;2023-06-26T02:46:22;100865.31;;;18.17;100.00
75460;BME280;64039;53.060;9.342;2023-06-26T02:48:48;100855.72;;;18.10;100.00
75460;BME280;64039;53.060;9.342;2023-06-26T02:51:14;100850.50;;;18.05;100.00
75460;BME280;64039;53.060;9.342;2023-06-26T02:53:39;100852.22;;;18.11;100.00
75460;BME280;64039;53.060;9.342;2023-06-26T02:56:04;100853.13;;;18.06;100.00
75460;BME280;64039;53.060;9.342;2023-06-26T02:58:30;100843.50;;;18.02;100.00
75460;BME280;64039;53.060;9.342;2023-06-26T03:00:56;100844.41;;;17.98;100.00
75460;BME280;64039;53.060;9.342;2023-06-26T03:03:21;100839.09;;;18.06;100.00
75460;BME280;64039;53.060;9.342;2023-06-26T03:05:47;100833.78;;;18.09;100.00
75460;BME280;64039;53.060;9.342;2023-06-26T03:08:12;100840.75;;;18.16;100.00
75460;BME280;64039;53.060;9.342;2023-06-26T03:10:38;100840.00;;;18.00;100.00
75460;BME280;64039;53.060;9.342;2023-06-26T03:13:03;100834.75;;;17.97;100.00
75460;BME280;64039;53.060;9.342;2023-06-26T03:15:29;100837.41;;;17.96;100.00
75460;BME280;64039;53.060;9.342;2023-06-26T03:17:54;100839.19;;;17.92;100.00
75460;BME280;64039;53.060;9.342;2023-06-26T03:20:19;100838.28;;;17.93;100.00
75460;BME280;64039;53.060;9.342;2023-06-26T03:22:45;100843.50;;;18.01;100.00
75460;BME280;64039;53.060;9.342;2023-06-26T03:25:10;100850.53;;;18.00;100.00
75460;BME280;64039;53.060;9.342;2023-06-26T03:27:36;100843.50;;;18.04;100.00
75460;BME280;64039;53.060;9.342;2023-06-26T03:30:01;100837.38;;;18.03;100.00
75460;BME280;64039;53.060;9.342;2023-06-26T03:32:27;100837.38;;;18.00;100.00
75460;BME280;64039;53.060;9.342;2023-06-26T03:34:52;100836.53;;;17.95;100.00
75460;BME280;64039;53.060;9.342;2023-06-26T03:37:20;100828.63;;;17.97;100.00
75460;BME280;64039;53.060;9.342;2023-06-26T03:39:46;100829.44;;;18.02;100.00
75460;BME280;64039;53.060;9.342;2023-06-26T03:42:11;100829.38;;;18.11;100.00
75460;BME280;64039;53.060;9.342;2023-06-26T03:44:37;100829.38;;;18.13;100.00
75460;BME280;64039;53.060;9.342;2023-06-26T03:47:02;100813.50;;;18.17;100.00
75460;BME280;64039;53.060;9.342;2023-06-26T03:49:27;100821.44;;;18.14;100.00
75460;BME280;64039;53.060;9.342;2023-06-26T03:51:53;100807.41;;;18.12;100.00
75460;BME280;64039;53.060;9.342;2023-06-26T03:54:18;100810.94;;;18.13;100.00
75460;BME280;64039;53.060;9.342;2023-06-26T03:56:44;100801.25;;;18.13;100.00
75460;BME280;64039;53.060;9.342;2023-06-26T03:59:10;100807.28;;;18.26;100.00
75460;BME280;64039;53.060;9.342;2023-06-26T04:01:36;100802.72;;;18.41;100.00
75460;BME280;64039;53.060;9.342;2023-06-26T04:04:01;100799.28;;;18.34;100.00
75460;BME280;64039;53.060;9.342;2023-06-26T04:06:27;100811.53;;;18.38;100.00
75460;BME280;64039;53.060;9.342;2023-06-26T04:08:53;100805.38;;;18.39;100.00
75460;BME280;64039;53.060;9.342;2023-06-26T04:11:18;100806.16;;;18.47;100.00
75460;BME280;64039;53.060;9.342;2023-06-26T04:13:44;100795.59;;;18.49;100.00
75460;BME280;64039;53.060;9.342;2023-06-26T04:16:09;100795.63;;;18.47;100.00
75460;BME280;64039;53.060;9.342;2023-06-26T04:18:37;100792.84;;;18.58;100.00
75460;BME280;64039;53.060;9.342;2023-06-26T04:21:09;100785.78;;;18.60;100.00
75460;BME280;64039;53.060;9.342;2023-06-26T04:23:37;100783.91;;;18.72;100.00
75460;BME280;64039;53.060;9.342;2023-06-26T04:26:04;100777.75;;;18.71;100.00
75460;BME280;64039;53.060;9.342;2023-06-26T04:28:31;100780.34;;;18.73;100.00
75460;BME280;64039;53.060;9.342;2023-06-26T04:30:57;100775.91;;;18.76;100.00
75460;BME280;64039;53.060;9.342;2023-06-26T04:33:22;100778.41;;;18.85;100.00
75460;BME280;64039;53.060;9.342;2023-06-26T04:35:48;100774.81;;;18.91;100.00
75460;BME280;64039;53.060;9.342;2023-06-26T04:38:17;100780.94;;;18.98;100.00
75460;BME280;64039;53.060;9.342;2023-06-26T04:40:42;100772.88;;;19.06;100.00
75460;BME280;64039;53.060;9.342;2023-06-26T04:43:08;100778.13;;;19.09;100.00
75460;BME280;64039;53.060;9.342;2023-06-26T04:45:33;100777.19;;;19.13;100.00
75460;BME280;64039;53.060;9.342;2023-06-26T04:47:59;100776.31;;;19.12;100.00
75460;BME280;64039;53.060;9.342;2023-06-26T04:50:25;100777.97;;;19.20;100.00
75460;BME280;64039;53.060;9.342;2023-06-26T04:52:51;100763.78;;;19.27;100.00
75460;BME280;64039;53.060;9.342;2023-06-26T04:55:16;100763.69;;;19.31;100.00
75460;BME280;64039;53.060;9.342;2023-06-26T04:57:42;100772.38;;;19.41;100.00
75460;BME280;64039;53.060;9.342;2023-06-26T05:00:08;100759.09;;;19.46;100.00
75460;BME280;64039;53.060;9.342;2023-06-26T05:02:36;100758.00;;;19.58;100.00
75460;BME280;64039;53.060;9.342;2023-06-26T05:05:02;100754.31;;;19.67;100.00
75460;BME280;64039;53.060;9.342;2023-06-26T05:07:27;100747.22;;;19.70;100.00
75460;BME280;64039;53.060;9.342;2023-06-26T05:09:52;100743.47;;;19.84;100.00
75460;BME280;64039;53.060;9.342;2023-06-26T05:12:18;100746.88;;;19.92;100.00
75460;BME280;64039;53.060;9.342;2023-06-26T05:14:43;100739.72;;;19.97;100.00
75460;BME280;64039;53.060;9.342;2023-06-26T05:17:09;100745.72;;;20.05;100.00
75460;BME280;64039;53.060;9.342;2023-06-26T05:19:34;100741.13;;;20.15;100.00
75460;BME280;64039;53.060;9.342;2023-06-26T05:22:01;100737.53;;;20.19;100.00
75460;BME280;64039;53.060;9.342;2023-06-26T05:24:30;100737.25;;;20.33;100.00
75460;BME280;64039;53.060;9.342;2023-06-26T05:26:56;100737.88;;;20.45;100.00
75460;BME280;64039;53.060;9.342;2023-06-26T05:29:22;100732.31;;;20.58;100.00
75460;BME280;64039;53.060;9.342;2023-06-26T05:31:49;100736.63;;;20.63;100.00
75460;BME280;64039;53.060;9.342;2023-06-26T05:34:17;100740.66;;;20.81;100.00
75460;BME280;64039;53.060;9.342;2023-06-26T05:36:45;100740.41;;;20.92;100.00
75460;BME280;64039;53.060;9.342;2023-06-26T05:39:14;100744.50;;;21.07;100.00
75460;BME280;64039;53.060;9.342;2023-06-26T05:41:39;100730.03;;;21.22;100.00
75460;BME280;64039;53.060;9.342;2023-06-26T05:44:05;100728.75;;;21.36;100.00
75460;BME280;64039;53.060;9.342;2023-06-26T05:46:30;100724.00;;;21.49;100.00
75460;BME280;64039;53.060;9.342;2023-06-26T05:48:55;100721.81;;;21.69;100.00
75460;BME280;64039;53.060;9.342;2023-06-26T05:51:21;100728.38;;;21.87;100.00
75460;BME280;64039;53.060;9.342;2023-06-26T05:53:47;100722.03;;;21.92;100.00
75460;BME280;64039;53.060;9.342;2023-06-26T05:56:13;100721.75;;;22.03;100.00
75460;BME280;64039;53.060;9.342;2023-06-26T05:58:39;100715.34;;;22.10;99.89
75460;BME280;64039;53.060;9.342;2023-06-26T06:01:05;100699.97;;;22.23;99.59
75460;BME280;64039;53.060;9.342;2023-06-26T06:03:31;100703.38;;;22.28;98.96
75460;BME280;64039;53.060;9.342;2023-06-26T06:05:56;100701.28;;;22.40;100.00
75460;BME280;64039;53.060;9.342;2023-06-26T06:08:22;100699.88;;;22.56;98.14
75460;BME280;64039;53.060;9.342;2023-06-26T06:10:47;100693.47;;;22.64;96.76
75460;BME280;64039;53.060;9.342;2023-06-26T06:13:13;100697.09;;;22.89;94.67
75460;BME280;64039;53.060;9.342;2023-06-26T06:15:38;100697.41;;;23.07;95.39
75460;BME280;64039;53.060;9.342;2023-06-26T06:18:04;100706.69;;;23.22;93.77
75460;BME280;64039;53.060;9.342;2023-06-26T06:20:30;100690.47;;;23.31;93.59
75460;BME280;64039;53.060;9.342;2023-06-26T06:22:55;100699.28;;;23.32;87.39
75460;BME280;64039;53.060;9.342;2023-06-26T06:25:21;100710.34;;;23.45;85.89
75460;BME280;64039;53.060;9.342;2023-06-26T06:27:46;100702.66;;;23.62;83.78
75460;BME280;64039;53.060;9.342;2023-06-26T06:30:12;100700.59;;;23.70;83.11
75460;BME280;64039;53.060;9.342;2023-06-26T06:32:37;100706.91;;;23.68;81.00
75460;BME280;64039;53.060;9.342;2023-06-26T06:35:03;100704.94;;;23.73;78.31
75460;BME280;64039;53.060;9.342;2023-06-26T06:37:34;100704.28;;;23.92;78.66
75460;BME280;64039;53.060;9.342;2023-06-26T06:40:00;100704.22;;;23.95;78.46
75460;BME280;64039;53.060;9.342;2023-06-26T06:42:25;100708.84;;;24.13;78.15
75460;BME280;64039;53.060;9.342;2023-06-26T06:44:51;100702.31;;;24.22;79.76
75460;BME280;64039;53.060;9.342;2023-06-26T06:47:16;100708.38;;;24.26;77.47
75460;BME280;64039;53.060;9.342;2023-06-26T06:49:42;100702.53;;;24.40;74.61
75460;BME280;64039;53.060;9.342;2023-06-26T06:52:07;100710.84;;;24.54;77.12
75460;BME280;64039;53.060;9.342;2023-06-26T06:54:51;100694.78;;;24.57;73.60
75460;BME280;64039;53.060;9.342;2023-06-26T06:57:17;100708.59;;;24.67;74.05
75460;BME280;64039;53.060;9.342;2023-06-26T06:59:42;100695.13;;;24.72;74.66
75460;BME280;64039;53.060;9.342;2023-06-26T07:02:08;100695.22;;;24.69;72.92
75460;BME280;64039;53.060;9.342;2023-06-26T07:04:33;100698.81;;;24.90;75.56
75460;BME280;64039;53.060;9.342;2023-06-26T07:06:58;100689.88;;;24.92;71.88
75460;BME280;64039;53.060;9.342;2023-06-26T07:09:24;100690.59;;;24.96;72.92
75460;BME280;64039;53.060;9.342;2023-06-26T07:11:49;100693.00;;;25.02;71.96
75460;BME280;64039;53.060;9.342;2023-06-26T07:14:15;100696.88;;;25.16;72.12
75460;BME280;64039;53.060;9.342;2023-06-26T07:16:40;100697.75;;;25.37;72.47
75460;BME280;64039;53.060;9.342;2023-06-26T07:19:06;100692.81;;;25.50;72.12
75460;BME280;64039;53.060;9.342;2023-06-26T07:21:31;100697.81;;;25.57;72.79
75460;BME280;64039;53.060;9.342;2023-06-26T07:23:56;100699.16;;;25.47;71.11
75460;BME280;64039;53.060;9.342;2023-06-26T07:26:22;100697.94;;;25.54;72.21
75460;BME280;64039;53.060;9.342;2023-06-26T07:28:48;100694.63;;;25.49;70.58
75460;BME280;64039;53.060;9.342;2023-06-26T07:31:14;100695.41;;;25.72;72.09
75460;BME280;64039;53.060;9.342;2023-06-26T07:33:42;100691.53;;;25.79;70.91
75460;BME280;64039;53.060;9.342;2023-06-26T07:36:07;100697.56;;;26.03;70.14
75460;BME280;64039;53.060;9.342;2023-06-26T07:38:32;100698.41;;;26.04;70.51
75460;BME280;64039;53.060;9.342;2023-06-26T07:40:58;100691.34;;;26.03;68.31
75460;BME280;64039;53.060;9.342;2023-06-26T07:43:23;100683.03;;;26.11;68.56
75460;BME280;64039;53.060;9.342;2023-06-26T07:45:49;100684.19;;;26.24;68.41
75460;BME280;64039;53.060;9.342;2023-06-26T07:48:16;100692.28;;;26.23;67.87
75460;BME280;64039;53.060;9.342;2023-06-26T07:50:42;100695.22;;;26.55;68.81
75460;BME280;64039;53.060;9.342;2023-06-26T07:53:07;100686.94;;;26.61;67.70
75460;BME280;64039;53.060;9.342;2023-06-26T07:55:33;100696.47;;;26.47;68.01
75460;BME280;64039;53.060;9.342;2023-06-26T07:57:59;100698.09;;;26.50;70.61
75460;BME280;64039;53.060;9.342;2023-06-26T08:00:24;100710.03;;;26.43;68.08
75460;BME280;64039;53.060;9.342;2023-06-26T08:02:50;100728.75;;;26.01;67.50
75460;BME280;64039;53.060;9.342;2023-06-26T08:05:15;100722.84;;;26.15;68.34
75460;BME280;64039;53.060;9.342;2023-06-26T08:07:40;100728.13;;;25.96;68.73
75460;BME280;64039;53.060;9.342;2023-06-26T08:10:06;100734.56;;;26.11;68.82
75460;BME280;64039;53.060;9.342;2023-06-26T08:12:31;100740.16;;;26.26;70.15
75460;BME280;64039;53.060;9.342;2023-06-26T08:14:57;100738.03;;;26.13;69.77
75460;BME280;64039;53.060;9.342;2023-06-26T08:17:22;100735.72;;;26.05;69.32
75460;BME280;64039;53.060;9.342;2023-06-26T08:19:48;100732.44;;;25.99;70.03
75460;BME280;64039;53.060;9.342;2023-06-26T08:22:13;100744.81;;;26.20;70.35
75460;BME280;64039;53.060;9.342;2023-06-26T08:24:39;100746.22;;;26.48;70.22
75460;BME280;64039;53.060;9.342;2023-06-26T08:27:04;100767.28;;;26.35;66.58
75460;BME280;64039;53.060;9.342;2023-06-26T08:29:31;100752.31;;;25.92;66.25
75460;BME280;64039;53.060;9.342;2023-06-26T08:31:56;100757.13;;;25.83;67.15
75460;BME280;64039;53.060;9.342;2023-06-26T08:34:22;100750.88;;;25.84;68.04
75460;BME280;64039;53.060;9.342;2023-06-26T08:36:47;100756.53;;;25.97;67.78
75460;BME280;64039;53.060;9.342;2023-06-26T08:39:12;100774.03;;;26.03;66.05
75460;BME280;64039;53.060;9.342;2023-06-26T08:41:38;100765.81;;;26.08;68.08
75460;BME280;64039;53.060;9.342;2023-06-26T08:44:03;100774.38;;;26.16;67.68
75460;BME280;64039;53.060;9.342;2023-06-26T08:46:30;100771.78;;;26.14;66.91
75460;BME280;64039;53.060;9.342;2023-06-26T08:48:57;100780.53;;;25.97;67.29
75460;BME280;64039;53.060;9.342;2023-06-26T08:51:27;100783.59;;;25.88;68.88
75460;BME280;64039;53.060;9.342;2023-06-26T08:54:07;100779.22;;;26.06;68.40
75460;BME280;64039;53.060;9.342;2023-06-26T08:56:42;100778.59;;;26.01;68.87
75460;BME280;64039;53.060;9.342;2023-06-26T08:59:09;100787.53;;;25.57;74.67
75460;BME280;64039;53.060;9.342;2023-06-26T09:01:40;100801.63;;;24.94;76.39
75460;BME280;64039;53.060;9.342;2023-06-26T09:04:06;100797.41;;;25.10;76.21
75460;BME280;64039;53.060;9.342;2023-06-26T09:06:34;100795.19;;;25.00;79.36
75460;BME280;64039;53.060;9.342;2023-06-26T09:08:59;100797.84;;;25.00;76.81
75460;BME280;64039;53.060;9.342;2023-06-26T09:11:25;100809.63;;;24.70;78.83
75460;BME280;64039;53.060;9.342;2023-06-26T09:13:51;100807.50;;;24.55;79.35
75460;BME280;64039;53.060;9.342;2023-06-26T09:16:17;100813.38;;;24.39;80.27
75460;BME280;64039;53.060;9.342;2023-06-26T09:18:42;100817.13;;;23.83;82.74
75460;BME280;64039;53.060;9.342;2023-06-26T09:21:10;100840.38;;;23.76;84.21
75460;BME280;64039;53.060;9.342;2023-06-26T09:23:36;100855.00;;;23.34;86.65
75460;BME280;64039;53.060;9.342;2023-06-26T09:26:05;100878.53;;;22.87;91.06
75460;BME280;64039;53.060;9.342;2023-06-26T09:28:32;100895.84;;;21.65;100.00
75460;BME280;64039;53.060;9.342;2023-06-26T09:31:05;100899.13;;;19.98;100.00
75460;BME280;64039;53.060;9.342;2023-06-26T09:33:35;100897.13;;;19.54;100.00
75460;BME280;64039;53.060;9.342;2023-06-26T09:36:05;100915.91;;;19.31;100.00
75460;BME280;64039;53.060;9.342;2023-06-26T09:38:30;100907.97;;;19.34;100.00
75460;BME280;64039;53.060;9.342;2023-06-26T09:40:56;100918.47;;;19.36;100.00
75460;BME280;64039;53.060;9.342;2023-06-26T09:43:21;100929.06;;;19.32;100.00
75460;BME280;64039;53.060;9.342;2023-06-26T09:45:47;100939.13;;;19.70;100.00
75460;BME280;64039;53.060;9.342;2023-06-26T09:48:13;100925.09;;;19.66;100.00
75460;BME280;64039;53.060;9.342;2023-06-26T09:50:41;100935.97;;;20.05;100.00
75460;BME280;64039;53.060;9.342;2023-06-26T09:53:07;100933.88;;;20.26;100.00
75460;BME280;64039;53.060;9.342;2023-06-26T09:55:35;100928.16;;;19.99;100.00
75460;BME280;64039;53.060;9.342;2023-06-26T09:58:02;100934.97;;;20.13;100.00
75460;BME280;64039;53.060;9.342;2023-06-26T10:00:28;100935.47;;;20.35;100.00
75460;BME280;64039;53.060;9.342;2023-06-26T10:02:53;100941.91;;;20.18;100.00
75460;BME280;64039;53.060;9.342;2023-06-26T10:05:19;100948.41;;;20.52;100.00
75460;BME280;64039;53.060;9.342;2023-06-26T10:07:45;100948.88;;;20.74;100.00
75460;BME280;64039;53.060;9.342;2023-06-26T10:10:12;100947.84;;;20.83;100.00
75460;BME280;64039;53.060;9.342;2023-06-26T10:12:37;100942.38;;;20.92;100.00
75460;BME280;64039;53.060;9.342;2023-06-26T10:15:03;100940.03;;;21.20;100.00
75460;BME280;64039;53.060;9.342;2023-06-26T10:17:34;100941.19;;;21.07;100.00
75460;BME280;64039;53.060;9.342;2023-06-26T10:20:02;100943.28;;;20.91;100.00
75460;BME280;64039;53.060;9.342;2023-06-26T10:22:29;100941.22;;;21.05;100.00
75460;BME280;64039;53.060;9.342;2023-06-26T10:24:58;100951.69;;;21.52;100.00
75460;BME280;64039;53.060;9.342;2023-06-26T10:27:28;100960.03;;;21.35;100.00
75460;BME280;64039;53.060;9.342;2023-06-26T10:30:00;100964.94;;;21.10;100.00
75460;BME280;64039;53.060;9.342;2023-06-26T10:32:26;100955.81;;;20.80;100.00
75460;BME280;64039;53.060;9.342;2023-06-26T10:34:53;100954.53;;;21.01;100.00
75460;BME280;64039;53.060;9.342;2023-06-26T10:37:20;100958.03;;;20.54;100.00
75460;BME280;64039;53.060;9.342;2023-06-26T10:39:50;100956.06;;;20.66;100.00
75460;BME280;64039;53.060;9.342;2023-06-26T10:42:17;100963.94;;;21.16;100.00
75460;BME280;64039;53.060;9.342;2023-06-26T10:44:45;100964.94;;;21.52;100.00
75460;BME280;64039;53.060;9.342;2023-06-26T10:47:32;100970.81;;;22.06;100.00
75460;BME280;64039;53.060;9.342;2023-06-26T10:50:24;100971.34;;;22.21;100.00
75460;BME280;64039;53.060;9.342;2023-06-26T10:53:11;100969.97;;;21.66;100.00
75460;BME280;64039;53.060;9.342;2023-06-26T10:55:44;100981.41;;;21.67;100.00
75460;BME280;64039;53.060;9.342;2023-06-26T10:58:29;100987.81;;;21.58;100.00
75460;BME280;64039;53.060;9.342;2023-06-26T11:01:14;100986.59;;;21.29;100.00
75460;BME280;64039;53.060;9.342;2023-06-26T11:03:59;100990.75;;;21.43;100.00
75460;BME280;64039;53.060;9.342;2023-06-26T11:06:27;100982.72;;;21.46;100.00
75460;BME280;64039;53.060;9.342;2023-06-26T11:11:56;100994.41;;;21.37;100.00
75460;BME280;64039;53.060;9.342;2023-06-26T11:14:25;101002.72;;;21.62;100.00
75460;BME280;64039;53.060;9.342;2023-06-26T11:16:51;101002.00;;;21.95;100.00
75460;BME280;64039;53.060;9.342;2023-06-26T11:19:18;101007.81;;;22.09;99.94
75460;BME280;64039;53.060;9.342;2023-06-26T11:21:44;101010.75;;;21.98;99.03
75460;BME280;64039;53.060;9.342;2023-06-26T11:24:11;101008.44;;;21.83;97.32
75460;BME280;64039;53.060;9.342;2023-06-26T11:26:41;101022.56;;;21.83;96.06
75460;BME280;64039;53.060;9.342;2023-06-26T11:29:07;101014.94;;;21.68;94.94
75460;BME280;64039;53.060;9.342;2023-06-26T11:31:34;101017.00;;;21.54;92.67
75460;BME280;64039;53.060;9.342;2023-06-26T11:34:02;101004.69;;;21.51;90.12
75460;BME280;64039;53.060;9.342;2023-06-26T11:36:29;101000.16;;;21.59;90.08
75460;BME280;64039;53.060;9.342;2023-06-26T11:38:59;101014.28;;;21.99;92.81
75460;BME280;64039;53.060;9.342;2023-06-26T11:41:27;101006.81;;;21.77;89.04
75460;BME280;64039;53.060;9.342;2023-06-26T11:43:53;101014.94;;;21.68;87.37
75460;BME280;64039;53.060;9.342;2023-06-26T11:46:21;101004.00;;;22.21;89.48
75460;BME280;64039;53.060;9.342;2023-06-26T11:48:46;101000.31;;;22.65;86.20
75460;BME280;64039;53.060;9.342;2023-06-26T11:51:13;101003.25;;;22.54;80.43
75460;BME280;64039;53.060;9.342;2023-06-26T11:53:40;100995.13;;;22.60;79.61
75460;BME280;64039;53.060;9.342;2023-06-26T11:56:10;100998.19;;;22.77;88.27
75460;BME280;64039;53.060;9.342;2023-06-26T11:58:37;101014.59;;;22.92;88.75
75460;BME280;64039;53.060;9.342;2023-06-26T12:01:17;101019.78;;;22.98;80.32
75460;BME280;64039;53.060;9.342;2023-06-26T12:03:43;101020.63;;;22.99;74.06
75460;BME280;64039;53.060;9.342;2023-06-26T12:06:10;101005.78;;;22.91;69.33
75460;BME280;64039;53.060;9.342;2023-06-26T12:08:35;101006.94;;;22.81;71.46
75460;BME280;64039;53.060;9.342;2023-06-26T12:11:01;101010.84;;;23.01;67.28
75460;BME280;64039;53.060;9.342;2023-06-26T12:13:26;101014.34;;;23.01;68.42
75460;BME280;64039;53.060;9.342;2023-06-26T12:15:52;101022.31;;;23.03;80.14
75460;BME280;64039;53.060;9.342;2023-06-26T12:18:17;101033.34;;;22.87;80.25
75460;BME280;64039;53.060;9.342;2023-06-26T12:20:43;101035.41;;;22.40;76.38
75460;BME280;64039;53.060;9.342;2023-06-26T12:23:13;101049.34;;;22.48;75.12
75460;BME280;64039;53.060;9.342;2023-06-26T12:25:38;101048.47;;;22.10;74.24
75460;BME280;64039;53.060;9.342;2023-06-26T12:28:15;101045.25;;;22.33;79.39
75460;BME280;64039;53.060;9.342;2023-06-26T12:30:45;101036.59;;;22.63;81.00
75460;BME280;64039;53.060;9.342;2023-06-26T12:33:14;101036.81;;;22.55;78.16
75460;BME280;64039;53.060;9.342;2023-06-26T12:35:41;101045.00;;;23.13;82.85
75460;BME280;64039;53.060;9.342;2023-06-26T12:38:08;101043.19;;;23.15;77.20
75460;BME280;64039;53.060;9.342;2023-06-26T12:40:44;101048.22;;;23.26;72.77
75460;BME280;64039;53.060;9.342;2023-06-26T12:43:23;101048.72;;;23.41;75.13
75460;BME280;64039;53.060;9.342;2023-06-26T12:45:53;101042.03;;;23.57;72.08
75460;BME280;64039;53.060;9.342;2023-06-26T12:48:19;101045.22;;;23.38;74.99
75460;BME280;64039;53.060;9.342;2023-06-26T12:50:45;101047.06;;;23.36;73.81